Arock, Oregon
Current Conditions -  °F | °C
As of 12:35 AM on Saturday 25 Oct 2014 (Local Time) from KEUL Reporting Station
Clear Clear  
Wind Chill:   Ceiling: Unl
Heat Index:   Visibility: 5mi
Dew Point:   Wind: 0mph
Humidity: 76%   Direction: NA
Pressure: 29.95"   Gusts: NA
Location:  42.91°N, 117.53°W
Report Text: KEUL 250635Z AUTO 00000KT 5SM CLR 08/04 A2995 RMK AO1
Loading
Personal Weather Stations






























Interactive Weather Map New forecast layout! Learn more

10-Day Weather Forecast

Advertisements
Track Severe Weather on mobile